createdAt,value
2019-05-20T00:00:39.269Z,94.90
2019-05-20T00:03:09.052Z,94.90
2019-05-20T00:05:39.006Z,94.70
2019-05-20T00:08:08.805Z,94.70
2019-05-20T00:10:38.538Z,94.80
2019-05-20T00:13:08.253Z,94.60
2019-05-20T00:15:38.110Z,94.60
2019-05-20T00:18:07.945Z,94.80
2019-05-20T00:20:37.676Z,94.80
2019-05-20T00:23:07.410Z,95.00
2019-05-20T00:25:37.253Z,95.00
2019-05-20T00:28:07.179Z,94.90
2019-05-20T00:30:37.265Z,95.00
2019-05-20T00:33:07.013Z,95.10
2019-05-20T00:35:37.060Z,95.20
2019-05-20T00:38:06.862Z,95.20
2019-05-20T00:40:36.634Z,95.20
2019-05-20T00:43:06.436Z,95.20
2019-05-20T00:45:36.188Z,95.40
2019-05-20T00:48:05.938Z,95.30
2019-05-20T00:50:36.681Z,95.30
2019-05-20T00:53:06.462Z,95.30
2019-05-20T00:55:36.404Z,95.10
2019-05-20T00:58:06.301Z,95.10
2019-05-20T01:00:36.121Z,95.20
2019-05-20T01:03:05.946Z,95.00
2019-05-20T01:05:35.611Z,95.10
2019-05-20T01:08:05.431Z,95.00
2019-05-20T01:10:35.236Z,95.10
2019-05-20T01:13:05.038Z,95.20
2019-05-20T01:15:34.829Z,95.00
2019-05-20T01:18:04.672Z,95.00
2019-05-20T01:20:34.497Z,95.40
2019-05-20T01:23:04.372Z,95.10
2019-05-20T01:25:34.143Z,94.90
2019-05-20T01:28:03.974Z,94.90
2019-05-20T01:30:33.669Z,95.10
2019-05-20T01:33:13.482Z,95.10
2019-05-20T01:35:34.786Z,95.00
2019-05-20T01:38:04.673Z,94.80
2019-05-20T01:40:34.424Z,94.60
2019-05-20T01:43:04.191Z,94.90
2019-05-20T01:45:33.937Z,95.10
2019-05-20T01:48:03.951Z,95.10
2019-05-20T01:50:33.691Z,95.10
2019-05-20T01:53:03.491Z,95.30
2019-05-20T01:55:33.356Z,95.30
2019-05-20T01:58:03.165Z,95.50
2019-05-20T02:00:33.090Z,95.60
2019-05-20T02:03:02.844Z,95.50
2019-05-20T02:05:32.766Z,95.30
2019-05-20T02:08:02.569Z,95.30
2019-05-20T02:10:32.365Z,95.50
2019-05-20T02:13:02.199Z,95.50
2019-05-20T02:15:42.833Z,95.60
2019-05-20T02:18:12.620Z,95.40
2019-05-20T02:20:42.421Z,95.50
2019-05-20T02:23:16.456Z,95.60
2019-05-20T02:25:47.269Z,95.40
2019-05-20T02:28:17.165Z,95.60
2019-05-20T02:30:46.975Z,95.70
2019-05-20T02:33:16.876Z,95.60
2019-05-20T02:35:46.679Z,95.70
2019-05-20T02:38:16.363Z,95.50
2019-05-20T02:40:47.147Z,95.40
2019-05-20T02:43:16.890Z,95.30
2019-05-20T02:45:46.726Z,95.40
2019-05-20T02:48:16.608Z,95.50
2019-05-20T02:50:46.388Z,95.50
2019-05-20T02:53:16.150Z,95.50
2019-05-20T02:55:45.998Z,95.50
2019-05-20T02:58:15.845Z,95.40
2019-05-20T03:00:45.591Z,95.30
2019-05-20T03:03:16.690Z,95.40
2019-05-20T03:05:46.737Z,95.30
2019-05-20T03:08:16.545Z,95.40
2019-05-20T03:10:47.278Z,95.50
2019-05-20T03:13:17.038Z,95.60
2019-05-20T03:15:46.829Z,95.40
2019-05-20T03:18:16.669Z,95.40
2019-05-20T03:20:46.414Z,95.40
2019-05-20T03:23:16.109Z,95.50
2019-05-20T03:25:45.881Z,95.50
2019-05-20T03:28:15.676Z,95.60
2019-05-20T03:30:45.491Z,95.70
2019-05-20T03:33:16.327Z,95.60
2019-05-20T03:35:46.085Z,95.60
2019-05-20T03:38:15.861Z,95.50
2019-05-20T03:40:45.749Z,95.20
2019-05-20T03:43:15.551Z,95.30
2019-05-20T03:45:45.285Z,95.30
2019-05-20T03:48:14.959Z,95.40
2019-05-20T03:50:44.656Z,95.40
2019-05-20T03:53:15.552Z,95.40
2019-05-20T03:55:46.424Z,95.30
2019-05-20T03:58:16.257Z,95.30
2019-05-20T04:00:47.149Z,95.40
2019-05-20T04:03:16.939Z,95.60
2019-05-20T04:05:46.735Z,95.70
2019-05-20T04:08:16.487Z,95.80
2019-05-20T04:10:46.360Z,95.80
2019-05-20T04:13:17.255Z,95.70
2019-05-20T04:15:47.129Z,95.60
2019-05-20T04:18:16.903Z,95.50
2019-05-20T04:20:46.658Z,96.00
2019-05-20T04:23:16.417Z,95.80
2019-05-20T04:25:46.177Z,96.20
2019-05-20T04:28:16.016Z,95.90
2019-05-20T04:30:45.749Z,96.00
2019-05-20T04:33:15.569Z,96.00
2019-05-20T04:35:49.495Z,96.20
2019-05-20T04:38:16.888Z,96.20
2019-05-20T04:40:46.652Z,96.20
2019-05-20T04:43:16.453Z,96.00
2019-05-20T04:45:46.252Z,95.80
2019-05-20T04:48:16.003Z,95.80
2019-05-20T04:50:45.859Z,95.60
2019-05-20T04:53:15.655Z,95.60
2019-05-20T04:55:45.459Z,95.50
2019-05-20T04:58:15.319Z,95.40
2019-05-20T05:00:53.599Z,95.30
2019-05-20T05:03:23.391Z,95.10
2019-05-20T05:05:53.208Z,95.20
2019-05-20T05:08:23.137Z,95.60
2019-05-20T05:10:52.980Z,95.40
2019-05-20T05:13:22.768Z,95.40
2019-05-20T05:15:52.508Z,95.20
2019-05-20T05:18:22.205Z,95.30
2019-05-20T05:20:52.052Z,95.20
2019-05-20T05:23:22.868Z,95.10
2019-05-20T05:25:52.597Z,95.10
2019-05-20T05:28:22.423Z,95.20
2019-05-20T05:30:52.155Z,95.00
2019-05-20T05:33:21.866Z,94.80
2019-05-20T05:35:53.609Z,94.90
2019-05-20T05:38:23.014Z,94.70
2019-05-20T05:40:52.774Z,94.70
2019-05-20T05:43:22.584Z,94.90
2019-05-20T05:45:52.414Z,94.60
2019-05-20T05:48:22.261Z,94.80
2019-05-20T05:50:52.089Z,94.90
2019-05-20T05:53:21.889Z,95.00
2019-05-20T05:55:51.696Z,94.90
2019-05-20T05:58:21.534Z,94.70
2019-05-20T06:00:51.371Z,94.40
2019-05-20T06:03:21.227Z,94.30
2019-05-20T06:05:51.197Z,94.10
2019-05-20T06:08:21.040Z,93.80
2019-05-20T06:10:50.807Z,93.80
2019-05-20T06:13:20.614Z,93.70
2019-05-20T06:15:50.518Z,93.90
2019-05-20T06:18:20.313Z,93.70
2019-05-20T06:20:50.069Z,94.20
2019-05-20T06:23:20.019Z,94.00
2019-05-20T06:25:49.784Z,94.10
2019-05-20T06:28:20.706Z,93.70
2019-05-20T06:30:51.587Z,93.50
2019-05-20T06:33:21.440Z,93.40
2019-05-20T06:35:51.254Z,93.30
2019-05-20T06:38:34.476Z,92.80
2019-05-20T06:41:05.591Z,92.60
2019-05-20T06:43:35.643Z,92.40
2019-05-20T06:46:05.446Z,91.90
2019-05-20T06:48:35.194Z,91.10
2019-05-20T06:51:04.982Z,90.50
2019-05-20T06:53:34.868Z,90.80
2019-05-20T06:56:04.776Z,89.60
2019-05-20T06:58:35.593Z,87.60
2019-05-20T07:01:05.344Z,84.90
2019-05-20T07:03:35.408Z,80.90
2019-05-20T07:06:05.113Z,78.50
2019-05-20T07:08:34.902Z,77.50
2019-05-20T07:11:04.878Z,77.80
2019-05-20T07:13:34.727Z,78.60
2019-05-20T07:16:04.604Z,79.90
2019-05-20T07:18:34.615Z,81.60
2019-05-20T07:21:04.424Z,81.60
2019-05-20T07:23:34.235Z,81.80
2019-05-20T07:26:04.058Z,81.80
2019-05-20T07:28:33.973Z,83.00
2019-05-20T07:31:03.853Z,82.00
2019-05-20T07:33:33.593Z,82.90
2019-05-20T07:36:03.562Z,82.10
2019-05-20T07:38:33.385Z,81.10
2019-05-20T07:41:03.274Z,81.30
2019-05-20T07:43:33.177Z,81.70
2019-05-20T07:46:03.005Z,83.60
2019-05-20T07:48:33.542Z,83.70
2019-05-20T07:51:03.707Z,85.10
2019-05-20T07:53:33.645Z,84.50
2019-05-20T07:56:09.218Z,83.80
2019-05-20T07:58:39.720Z,83.00
2019-05-20T08:01:09.517Z,82.10
2019-05-20T08:03:40.745Z,82.10
2019-05-20T08:06:10.717Z,82.30
2019-05-20T08:08:40.537Z,82.40
2019-05-20T08:11:10.355Z,80.80
2019-05-20T08:13:40.106Z,79.00
2019-05-20T08:16:09.959Z,77.40
2019-05-20T08:18:39.800Z,76.40
2019-05-20T08:21:09.611Z,75.60
2019-05-20T08:23:39.456Z,75.90
2019-05-20T08:26:09.364Z,76.20
2019-05-20T08:28:39.159Z,77.10
2019-05-20T08:31:08.974Z,77.60
2019-05-20T08:33:38.792Z,77.50
2019-05-20T08:36:08.798Z,75.50
2019-05-20T08:38:38.671Z,75.90
2019-05-20T08:41:09.754Z,75.00
2019-05-20T08:43:39.620Z,73.50
2019-05-20T08:46:09.503Z,73.40
2019-05-20T08:48:39.456Z,72.80
2019-05-20T08:51:09.340Z,71.40
2019-05-20T08:53:39.700Z,71.30
2019-05-20T08:56:09.522Z,71.00
2019-05-20T08:58:39.294Z,69.90
2019-05-20T09:01:11.440Z,67.80
2019-05-20T09:03:41.927Z,65.50
2019-05-20T09:06:11.797Z,65.20
2019-05-20T09:08:41.583Z,67.60
2019-05-20T09:11:11.626Z,71.00
2019-05-20T09:13:41.651Z,70.60
2019-05-20T09:16:11.791Z,68.90
2019-05-20T09:18:41.739Z,69.50
2019-05-20T09:21:12.067Z,69.50
2019-05-20T09:23:41.929Z,70.10
2019-05-20T09:26:11.717Z,73.00
2019-05-20T09:28:41.837Z,76.40
2019-05-20T09:31:11.895Z,76.90
2019-05-20T09:33:42.001Z,77.40
2019-05-20T09:36:13.039Z,77.30
2019-05-20T09:38:42.882Z,76.80
2019-05-20T09:41:12.649Z,77.80
2019-05-20T09:43:42.550Z,76.90
2019-05-20T09:46:12.338Z,77.10
2019-05-20T09:48:42.214Z,77.40
2019-05-20T09:51:12.118Z,77.80
2019-05-20T09:53:43.180Z,75.60
2019-05-20T09:56:13.210Z,76.70
2019-05-20T09:58:43.320Z,77.00
2019-05-20T10:01:13.335Z,78.30
2019-05-20T10:03:43.183Z,79.50
2019-05-20T10:06:13.400Z,79.40
2019-05-20T10:08:45.103Z,79.60
2019-05-20T10:11:14.776Z,79.40
2019-05-20T10:13:44.729Z,80.40
2019-05-20T10:16:36.065Z,81.70
2019-05-20T10:19:05.826Z,82.80
2019-05-20T10:21:35.729Z,83.40
2019-05-20T10:24:05.694Z,83.20
2019-05-20T10:26:35.545Z,84.20
2019-05-20T10:29:05.521Z,85.30
2019-05-20T10:31:35.453Z,85.10
2019-05-20T10:34:05.383Z,84.70
2019-05-20T10:36:35.298Z,85.30
2019-05-20T10:39:07.844Z,83.80
2019-05-20T10:41:38.173Z,84.00
2019-05-20T10:44:09.172Z,83.10
2019-05-20T10:46:38.957Z,83.60
2019-05-20T10:49:08.820Z,85.00
2019-05-20T10:51:38.747Z,86.20
2019-05-20T10:54:08.590Z,86.50
2019-05-20T10:56:38.507Z,85.50
2019-05-20T10:59:11.924Z,85.60
2019-05-20T11:01:39.875Z,85.40
2019-05-20T11:04:09.644Z,85.50
2019-05-20T11:06:39.479Z,85.80
2019-05-20T11:09:14.174Z,86.10
2019-05-20T11:11:40.864Z,86.00
2019-05-20T11:14:10.689Z,85.00
2019-05-20T11:16:40.565Z,84.50
2019-05-20T11:19:10.608Z,84.30
2019-05-20T11:21:40.733Z,83.70
2019-05-20T11:24:10.512Z,83.40
2019-05-20T11:26:40.428Z,83.80
2019-05-20T11:29:10.315Z,83.40
2019-05-20T11:31:40.114Z,82.30
2019-05-20T11:34:10.072Z,81.20
2019-05-20T11:36:39.933Z,81.40
2019-05-20T11:39:09.764Z,81.40
2019-05-20T11:41:52.720Z,80.90
2019-05-20T11:44:11.998Z,81.30
2019-05-20T11:46:42.108Z,81.30
2019-05-20T11:49:11.901Z,81.70
2019-05-20T11:51:41.703Z,81.80
2019-05-20T11:54:11.690Z,82.60
2019-05-20T11:56:41.510Z,82.00
2019-05-20T11:59:11.360Z,81.70
2019-05-20T12:01:41.131Z,81.70
2019-05-20T12:04:10.918Z,82.00
2019-05-20T12:06:40.680Z,82.20
2019-05-20T12:09:10.502Z,82.20
2019-05-20T12:11:40.336Z,81.50
2019-05-20T12:14:10.072Z,79.40
2019-05-20T12:16:39.873Z,78.40
2019-05-20T12:19:09.756Z,76.60
2019-05-20T12:21:39.753Z,76.50
2019-05-20T12:24:09.554Z,76.60
2019-05-20T12:26:39.371Z,77.10
2019-05-20T12:29:09.191Z,77.80
2019-05-20T12:31:38.989Z,77.60
2019-05-20T12:34:08.785Z,76.10
2019-05-20T12:36:38.671Z,74.30
2019-05-20T12:39:08.560Z,73.10
2019-05-20T12:41:38.498Z,72.20
2019-05-20T12:44:12.590Z,71.50
2019-05-20T12:46:39.746Z,70.10
2019-05-20T12:49:09.634Z,70.60
2019-05-20T12:51:39.523Z,70.80
2019-05-20T12:54:09.531Z,67.70
2019-05-20T12:56:39.332Z,69.60
2019-05-20T12:59:09.094Z,65.60
2019-05-20T13:01:38.899Z,63.70
2019-05-20T13:04:08.756Z,64.50
2019-05-20T13:06:40.172Z,62.80
2019-05-20T13:09:09.967Z,65.00
2019-05-20T13:11:39.744Z,66.40
2019-05-20T13:14:10.627Z,66.30
2019-05-20T13:16:40.441Z,66.00
2019-05-20T13:19:10.432Z,65.10
2019-05-20T13:21:40.315Z,63.40
2019-05-20T13:24:10.144Z,63.50
2019-05-20T13:26:40.147Z,64.20
2019-05-20T13:29:10.063Z,64.00
2019-05-20T13:31:39.980Z,64.70
2019-05-20T13:34:09.813Z,64.50
2019-05-20T13:36:39.813Z,64.00
2019-05-20T13:39:09.682Z,63.60
2019-05-20T13:41:39.615Z,62.60
2019-05-20T13:44:09.562Z,63.20
2019-05-20T13:46:39.473Z,63.50
2019-05-20T13:49:09.413Z,63.90
2019-05-20T13:51:39.300Z,64.30
2019-05-20T13:54:09.221Z,65.00
2019-05-20T13:56:39.132Z,64.20
2019-05-20T13:59:08.931Z,64.70
2019-05-20T14:01:38.989Z,64.70
2019-05-20T14:04:08.864Z,66.00
2019-05-20T14:06:38.641Z,65.30
2019-05-20T14:09:08.443Z,63.20
2019-05-20T14:11:38.276Z,63.20
2019-05-20T14:14:08.135Z,63.70
2019-05-20T14:16:37.950Z,62.30
2019-05-20T14:19:07.830Z,62.80
2019-05-20T14:21:37.639Z,63.80
2019-05-20T14:24:07.536Z,64.10
2019-05-20T14:26:37.460Z,63.20
2019-05-20T14:29:07.281Z,63.60
2019-05-20T14:31:37.047Z,64.50
2019-05-20T14:34:07.721Z,64.20
2019-05-20T14:36:40.072Z,63.20
2019-05-20T14:39:08.937Z,63.20
2019-05-20T14:41:38.791Z,63.10
2019-05-20T14:44:08.714Z,63.80
2019-05-20T14:46:38.562Z,63.10
2019-05-20T14:49:08.470Z,64.40
2019-05-20T14:51:38.284Z,65.00
2019-05-20T14:54:08.187Z,66.40
2019-05-20T14:56:37.950Z,64.70
2019-05-20T14:59:07.740Z,65.30
2019-05-20T15:01:37.492Z,65.20
2019-05-20T15:04:07.395Z,65.60
2019-05-20T15:06:37.224Z,65.90
2019-05-20T15:09:07.139Z,65.00
2019-05-20T15:11:38.744Z,66.20
2019-05-20T15:14:09.813Z,66.80
2019-05-20T15:16:39.817Z,66.90
2019-05-20T15:19:09.825Z,67.10
2019-05-20T15:21:39.921Z,67.30
2019-05-20T15:24:11.186Z,67.50
2019-05-20T15:26:41.781Z,68.10
2019-05-20T15:29:26.868Z,65.90
2019-05-20T15:31:44.050Z,66.10
2019-05-20T15:34:13.904Z,66.50
2019-05-20T15:36:44.114Z,67.60
2019-05-20T15:39:14.790Z,66.90
2019-05-20T15:41:44.887Z,67.50
2019-05-20T15:44:15.529Z,67.90
2019-05-20T15:46:45.617Z,68.50
2019-05-20T15:49:15.477Z,69.60
2019-05-20T15:51:45.535Z,69.40
2019-05-20T15:54:15.584Z,69.60
2019-05-20T15:56:45.947Z,69.40
2019-05-20T15:59:15.979Z,69.80
2019-05-20T16:01:46.044Z,69.60
2019-05-20T16:04:15.916Z,70.00
2019-05-20T16:06:46.506Z,69.30
2019-05-20T16:09:17.569Z,70.30
2019-05-20T16:11:48.511Z,71.40
2019-05-20T16:14:18.692Z,71.70
2019-05-20T16:16:49.130Z,72.20
2019-05-20T16:19:19.426Z,73.70
2019-05-20T16:21:50.043Z,73.30
2019-05-20T16:24:20.554Z,74.00
2019-05-20T16:26:51.370Z,74.50
2019-05-20T16:29:22.005Z,74.20
2019-05-20T16:31:52.329Z,75.00
2019-05-20T16:34:22.841Z,75.60
2019-05-20T16:36:53.245Z,75.80
2019-05-20T16:39:23.383Z,76.20
2019-05-20T16:41:54.929Z,77.60
2019-05-20T16:44:24.864Z,77.20
2019-05-20T16:46:59.568Z,77.60
2019-05-20T16:49:29.497Z,78.60
2019-05-20T16:51:59.349Z,80.60
2019-05-20T16:54:29.218Z,80.50
2019-05-20T16:56:59.004Z,78.90
2019-05-20T16:59:28.778Z,79.80
2019-05-20T17:01:58.646Z,80.70
2019-05-20T17:04:28.554Z,81.00
2019-05-20T17:06:58.472Z,81.70
2019-05-20T17:09:28.481Z,83.10
2019-05-20T17:11:58.269Z,82.00
2019-05-20T17:14:28.103Z,82.90
2019-05-20T17:16:58.005Z,82.70
2019-05-20T17:19:28.757Z,83.70
2019-05-20T17:21:58.498Z,84.40
2019-05-20T17:24:28.236Z,83.70
2019-05-20T17:26:58.188Z,84.00
2019-05-20T17:29:29.067Z,83.20
2019-05-20T17:31:59.942Z,84.00
2019-05-20T17:34:29.672Z,84.50
2019-05-20T17:36:59.350Z,84.80
2019-05-20T17:39:29.185Z,84.10
2019-05-20T17:41:58.983Z,84.30
2019-05-20T17:44:28.854Z,85.20
2019-05-20T17:46:58.596Z,85.80
2019-05-20T17:49:28.284Z,85.90
2019-05-20T17:51:57.988Z,86.10
2019-05-20T17:54:27.787Z,86.50
2019-05-20T17:56:57.576Z,86.20
2019-05-20T17:59:27.379Z,86.90
2019-05-20T18:01:57.151Z,87.50
2019-05-20T18:04:26.838Z,87.80
2019-05-20T18:06:56.646Z,87.80
2019-05-20T18:09:28.338Z,88.50
2019-05-20T18:11:58.383Z,88.00
2019-05-20T18:14:28.220Z,88.30
2019-05-20T18:16:58.102Z,88.60
2019-05-20T18:19:27.983Z,88.70
2019-05-20T18:21:57.815Z,89.70
2019-05-20T18:24:27.646Z,89.50
2019-05-20T18:26:57.449Z,89.90
2019-05-20T18:29:27.282Z,90.20
2019-05-20T18:31:57.123Z,90.30
2019-05-20T18:34:26.937Z,90.50
2019-05-20T18:36:56.797Z,90.50
2019-05-20T18:39:26.606Z,90.60
2019-05-20T18:41:56.555Z,90.80
2019-05-20T18:44:26.347Z,90.90
2019-05-20T18:46:56.190Z,91.00
2019-05-20T18:49:26.010Z,91.40
2019-05-20T18:51:55.803Z,91.30
2019-05-20T18:54:25.607Z,91.00
2019-05-20T18:56:55.443Z,90.90
2019-05-20T18:59:25.185Z,91.20
2019-05-20T19:02:04.651Z,91.10
2019-05-20T19:04:26.394Z,91.50
2019-05-20T19:06:56.263Z,91.70
2019-05-20T19:09:26.101Z,91.90
2019-05-20T19:11:56.183Z,91.40
2019-05-20T19:14:25.977Z,92.00
2019-05-20T19:16:55.772Z,92.00
2019-05-20T19:19:25.543Z,91.60
2019-05-20T19:21:55.338Z,92.00
2019-05-20T19:24:25.161Z,92.30
2019-05-20T19:26:54.970Z,92.00
2019-05-20T19:29:24.869Z,92.40
2019-05-20T19:32:02.029Z,92.50
2019-05-20T19:34:26.099Z,92.50
2019-05-20T19:36:55.925Z,92.50
2019-05-20T19:39:25.807Z,92.40
2019-05-20T19:41:55.828Z,92.60
2019-05-20T19:44:25.607Z,92.40
2019-05-20T19:46:55.450Z,92.30
2019-05-20T19:49:25.310Z,92.50
2019-05-20T19:51:55.231Z,92.50
2019-05-20T19:54:24.967Z,92.60
2019-05-20T19:56:54.817Z,92.80
2019-05-20T19:59:24.551Z,92.80
2019-05-20T20:01:54.441Z,92.80
2019-05-20T20:04:24.209Z,92.90
2019-05-20T20:06:53.980Z,93.00
2019-05-20T20:09:23.819Z,93.10
2019-05-20T20:11:53.686Z,92.90
2019-05-20T20:14:23.436Z,92.90
2019-05-20T20:16:53.293Z,92.70
2019-05-20T20:19:23.097Z,93.00
2019-05-20T20:21:52.848Z,93.00
2019-05-20T20:24:22.763Z,92.80
2019-05-20T20:26:52.548Z,92.80
2019-05-20T20:29:22.390Z,92.80
2019-05-20T20:31:52.257Z,92.90
2019-05-20T20:34:22.052Z,93.10
2019-05-20T20:36:51.859Z,93.20
2019-05-20T20:39:21.925Z,93.10
2019-05-20T20:41:51.832Z,93.20
2019-05-20T20:44:21.618Z,93.40
2019-05-20T20:46:51.389Z,93.60
2019-05-20T20:49:21.181Z,93.50
2019-05-20T20:51:50.948Z,93.50
2019-05-20T20:54:20.879Z,93.60
2019-05-20T20:56:50.741Z,93.70
2019-05-20T20:59:20.559Z,93.90
2019-05-20T21:01:53.786Z,94.00
2019-05-20T21:04:21.754Z,94.00
2019-05-20T21:06:51.504Z,94.00
2019-05-20T21:09:21.316Z,94.10
2019-05-20T21:11:51.176Z,94.20
2019-05-20T21:14:21.009Z,94.20
2019-05-20T21:16:50.846Z,94.10
2019-05-20T21:19:20.601Z,94.00
2019-05-20T21:21:50.469Z,93.60
2019-05-20T21:24:20.302Z,93.80
2019-05-20T21:26:50.095Z,93.90
2019-05-20T21:29:19.971Z,93.60
2019-05-20T21:31:50.805Z,93.10
2019-05-20T21:34:20.513Z,93.20
2019-05-20T21:36:50.322Z,93.40
2019-05-20T21:39:20.265Z,93.10
2019-05-20T21:41:50.126Z,93.10
2019-05-20T21:44:19.895Z,93.00
2019-05-20T21:46:49.713Z,93.00
2019-05-20T21:49:19.472Z,93.00
2019-05-20T21:51:49.307Z,92.90
2019-05-20T21:54:19.098Z,92.80
2019-05-20T21:56:50.129Z,93.00
2019-05-20T21:59:19.966Z,93.10
2019-05-20T22:01:49.871Z,93.10
2019-05-20T22:04:19.750Z,92.90
2019-05-20T22:06:49.556Z,93.10
2019-05-20T22:09:19.310Z,93.20
2019-05-20T22:11:49.068Z,93.20
2019-05-20T22:14:18.822Z,93.10
2019-05-20T22:16:48.889Z,93.00
2019-05-20T22:19:18.742Z,93.00
2019-05-20T22:21:50.133Z,92.90
2019-05-20T22:24:19.989Z,93.10
2019-05-20T22:26:49.797Z,93.20
2019-05-20T22:29:19.536Z,93.20
2019-05-20T22:31:49.415Z,93.20
2019-05-20T22:34:19.326Z,93.20
2019-05-20T22:36:50.140Z,93.10
2019-05-20T22:39:19.951Z,93.00
2019-05-20T22:41:49.839Z,92.90
2019-05-20T22:44:19.626Z,92.70
2019-05-20T22:46:49.450Z,92.80
2019-05-20T22:49:19.229Z,93.00
2019-05-20T22:51:50.131Z,93.10
2019-05-20T22:54:19.889Z,93.10
2019-05-20T22:56:49.636Z,93.20
2019-05-20T22:59:19.438Z,93.10
2019-05-20T23:01:49.166Z,93.00
2019-05-20T23:04:19.880Z,92.90
2019-05-20T23:06:49.756Z,93.00
2019-05-20T23:09:19.567Z,92.80
2019-05-20T23:11:49.388Z,92.60
2019-05-20T23:14:19.109Z,92.40
2019-05-20T23:16:49.011Z,92.50
2019-05-20T23:19:18.797Z,92.60
2019-05-20T23:21:48.590Z,92.50
2019-05-20T23:24:18.414Z,92.50
2019-05-20T23:26:48.439Z,92.40
2019-05-20T23:29:18.194Z,92.40
2019-05-20T23:31:48.025Z,92.40
2019-05-20T23:34:17.816Z,92.50
2019-05-20T23:36:47.589Z,92.70
2019-05-20T23:39:17.419Z,92.50
2019-05-20T23:41:47.241Z,92.30
2019-05-20T23:44:17.041Z,92.40
2019-05-20T23:46:46.808Z,92.20
2019-05-20T23:49:16.620Z,92.20
2019-05-20T23:51:46.410Z,92.20
2019-05-20T23:54:17.393Z,92.10
2019-05-20T23:56:47.176Z,92.10
2019-05-20T23:59:16.957Z,92.00
